createdAt,value
2022-10-01T00:00:40.663Z,98997.31
2022-10-01T00:03:44.046Z,98979.19
2022-10-01T00:06:46.515Z,99038.81
2022-10-01T00:09:48.973Z,99098.06
2022-10-01T00:12:51.365Z,99010.50
2022-10-01T00:15:53.899Z,99021.84
2022-10-01T00:18:56.679Z,98983.81
2022-10-01T00:21:59.180Z,98987.16
2022-10-01T00:25:01.984Z,99011.31
2022-10-01T00:28:04.476Z,98985.91
2022-10-01T00:31:09.124Z,98993.19
2022-10-01T00:34:13.655Z,98994.44
2022-10-01T00:37:18.012Z,98980.72
2022-10-01T00:40:22.186Z,98996.53
2022-10-01T00:43:27.271Z,98988.44
2022-10-01T00:46:39.249Z,98968.56
2022-10-01T00:49:43.397Z,99004.06
2022-10-01T00:52:54.427Z,99004.75
2022-10-01T00:55:58.445Z,99004.63
2022-10-01T00:59:01.663Z,98938.78
2022-10-01T01:02:04.328Z,98977.59
2022-10-01T01:05:08.953Z,98981.50
2022-10-01T01:08:11.448Z,98991.91
2022-10-01T01:11:26.566Z,98990.97
2022-10-01T01:14:50.758Z,98980.59
2022-10-01T01:18:05.779Z,99021.59
2022-10-01T01:21:14.339Z,99005.78
2022-10-01T01:24:25.046Z,99017.34
2022-10-01T01:28:17.535Z,98994.66
2022-10-01T01:31:28.162Z,98983.25
2022-10-01T01:34:33.431Z,98990.75
2022-10-01T01:37:47.844Z,98996.06
2022-10-01T01:40:56.442Z,98987.28
2022-10-01T01:44:02.401Z,98982.91
2022-10-01T01:47:07.566Z,99000.34
2022-10-01T01:50:11.766Z,98991.53
2022-10-01T01:53:15.241Z,98979.06
2022-10-01T01:56:18.287Z,98964.44
2022-10-01T01:59:20.891Z,98967.19
2022-10-01T02:02:28.913Z,98973.88
2022-10-01T02:05:49.365Z,98966.84
2022-10-01T02:08:59.042Z,98973.88
2022-10-01T02:12:20.331Z,98981.72
2022-10-01T02:15:22.846Z,98987.03
2022-10-01T02:18:29.698Z,98979.06
2022-10-01T02:21:45.093Z,98979.78
2022-10-01T02:24:59.216Z,98993.16
2022-10-01T02:28:07.636Z,98974.47
2022-10-01T02:31:12.896Z,99002.44
2022-10-01T02:34:20.253Z,98989.59
2022-10-01T02:37:26.664Z,98989.94
2022-10-01T02:40:32.562Z,98969.84
2022-10-01T02:43:42.814Z,98984.03
2022-10-01T02:47:03.120Z,98979.44
2022-10-01T02:50:08.038Z,98967.31
2022-10-01T02:53:19.685Z,98995.25
2022-10-01T02:56:48.624Z,98999.31
2022-10-01T02:59:52.094Z,98952.84
2022-10-01T03:02:54.813Z,98971.69
2022-10-01T03:05:57.403Z,98989.69
2022-10-01T03:09:00.544Z,98985.44
2022-10-01T03:12:04.011Z,98974.94
2022-10-01T03:15:07.222Z,98962.81
2022-10-01T03:18:09.669Z,98947.78
2022-10-01T03:21:12.087Z,98934.03
2022-10-01T03:24:14.690Z,98990.16
2022-10-01T03:27:17.726Z,98950.78
2022-10-01T03:30:20.136Z,98974.25
2022-10-01T03:33:22.683Z,98996.28
2022-10-01T03:36:25.554Z,99022.31
2022-10-01T03:39:27.948Z,99011.56
2022-10-01T03:42:30.603Z,99009.00
2022-10-01T03:45:33.045Z,99021.50
2022-10-01T03:48:35.449Z,99003.72
2022-10-01T03:51:38.127Z,99013.88
2022-10-01T03:54:40.460Z,98970.31
2022-10-01T03:57:42.759Z,98985.69
2022-10-01T04:00:46.976Z,98979.91
2022-10-01T04:03:50.252Z,98974.25
2022-10-01T04:06:52.494Z,98994.19
2022-10-01T04:09:54.695Z,98989.69
2022-10-01T04:12:56.944Z,98982.44
2022-10-01T04:15:59.190Z,98971.94
2022-10-01T04:19:02.422Z,98978.72
2022-10-01T04:22:04.653Z,98981.38
2022-10-01T04:25:10.880Z,98982.91
2022-10-01T04:28:14.132Z,98987.84
2022-10-01T04:31:25.464Z,98989.47
2022-10-01T04:34:47.745Z,98984.75
2022-10-01T04:38:06.012Z,98987.28
2022-10-01T04:41:09.288Z,98980.81
2022-10-01T04:44:11.584Z,98979.53
2022-10-01T04:47:13.842Z,98969.84
2022-10-01T04:50:16.937Z,98977.69
2022-10-01T04:53:21.249Z,98974.00
2022-10-01T04:56:23.530Z,98977.34
2022-10-01T04:59:26.458Z,99007.28
2022-10-01T05:02:29.416Z,98992.59
2022-10-01T05:05:33.131Z,98997.47
2022-10-01T05:08:35.370Z,98966.25
2022-10-01T05:11:39.167Z,98994.91
2022-10-01T05:14:41.456Z,98983.25
2022-10-01T05:17:44.460Z,98994.09
2022-10-01T05:20:46.784Z,99016.88
2022-10-01T05:23:48.995Z,99014.44
2022-10-01T05:26:51.191Z,99020.69
2022-10-01T05:29:53.683Z,99013.53
2022-10-01T05:32:58.983Z,99027.63
2022-10-01T05:36:01.496Z,99027.03
2022-10-01T05:39:03.938Z,99019.75
2022-10-01T05:42:06.648Z,98993.53
2022-10-01T05:45:10.115Z,98986.03
2022-10-01T05:48:12.907Z,99000.22
2022-10-01T05:51:16.199Z,99010.28
2022-10-01T05:54:19.569Z,99029.34
2022-10-01T05:57:21.796Z,99022.66
2022-10-01T06:00:29.243Z,98987.97
2022-10-01T06:03:31.970Z,99008.09
2022-10-01T06:06:34.478Z,98960.00
2022-10-01T06:09:36.658Z,98963.63
2022-10-01T06:12:38.961Z,98990.28
2022-10-01T06:15:41.239Z,98971.81
2022-10-01T06:18:43.909Z,98983.13
2022-10-01T06:21:46.331Z,98940.84
2022-10-01T06:24:48.606Z,98914.19
2022-10-01T06:27:56.402Z,98954.25
2022-10-01T06:31:01.625Z,98954.13
2022-10-01T06:34:03.915Z,98981.25
2022-10-01T06:37:06.198Z,98981.50
2022-10-01T06:40:09.086Z,98987.19
2022-10-01T06:43:11.399Z,98990.28
2022-10-01T06:46:13.703Z,98970.88
2022-10-01T06:49:20.496Z,98993.56
2022-10-01T06:52:41.407Z,98984.03
2022-10-01T06:55:44.760Z,98994.38
2022-10-01T06:58:47.120Z,98986.22
2022-10-01T07:01:55.497Z,98996.84
2022-10-01T07:04:59.378Z,98987.41
2022-10-01T07:08:02.061Z,98966.97
2022-10-01T07:11:05.092Z,98977.59
2022-10-01T07:14:08.673Z,98996.56
2022-10-01T07:17:10.961Z,98958.66
2022-10-01T07:20:14.879Z,98962.69
2022-10-01T07:23:17.313Z,98969.84
2022-10-01T07:26:19.567Z,98960.25
2022-10-01T07:29:24.872Z,98969.97
2022-10-01T07:32:27.194Z,98960.84
2022-10-01T07:35:29.647Z,98960.63
2022-10-01T07:38:33.526Z,98948.34
2022-10-01T07:41:36.135Z,98958.31
2022-10-01T07:44:38.569Z,98954.03
2022-10-01T07:47:42.004Z,98954.59
2022-10-01T07:50:47.459Z,98938.97
2022-10-01T07:53:50.890Z,98960.97
2022-10-01T07:56:55.916Z,98933.66
2022-10-01T07:59:58.121Z,98956.91
2022-10-01T08:03:00.474Z,98959.81
2022-10-01T08:06:09.587Z,98940.25
2022-10-01T08:09:11.790Z,98960.25
2022-10-01T08:12:13.985Z,98935.50
2022-10-01T08:15:18.074Z,98950.41
2022-10-01T08:18:21.545Z,98957.25
2022-10-01T08:21:23.807Z,98961.53
2022-10-01T08:24:26.949Z,98951.47
2022-10-01T08:27:29.262Z,98962.56
2022-10-01T08:30:31.544Z,98954.38
2022-10-01T08:33:34.855Z,98932.84
2022-10-01T08:36:37.860Z,98941.97
2022-10-01T08:39:40.120Z,98906.84
2022-10-01T08:43:00.051Z,98897.16
2022-10-01T08:46:16.121Z,98917.50
2022-10-01T08:49:33.128Z,98920.97
2022-10-01T08:52:46.176Z,98910.47
2022-10-01T08:55:49.768Z,98927.19
2022-10-01T08:58:58.973Z,98896.66
2022-10-01T09:02:01.621Z,98900.94
2022-10-01T09:05:30.972Z,98910.47
2022-10-01T09:08:49.821Z,98926.63
2022-10-01T09:11:59.187Z,98924.03
2022-10-01T09:15:47.335Z,98921.63
2022-10-01T09:19:07.886Z,98905.56
2022-10-01T09:22:30.979Z,98904.63
2022-10-01T09:25:37.802Z,98895.75
2022-10-01T09:28:41.775Z,98876.22
2022-10-01T09:31:47.847Z,98874.06
2022-10-01T09:34:53.612Z,98910.06
2022-10-01T09:38:18.030Z,98904.47
2022-10-01T09:41:20.269Z,98869.97
2022-10-01T09:44:28.875Z,98873.53
2022-10-01T09:47:34.168Z,98887.50
2022-10-01T09:50:43.298Z,98871.19
2022-10-01T09:53:57.832Z,98885.16
2022-10-01T09:57:08.467Z,98856.47
2022-10-01T10:00:21.914Z,98885.50
2022-10-01T10:03:28.783Z,98871.53
2022-10-01T10:06:32.247Z,98851.22
2022-10-01T10:09:36.156Z,98848.63
2022-10-01T10:12:38.425Z,98859.47
2022-10-01T10:15:52.513Z,98850.69
2022-10-01T10:19:02.311Z,98843.75
2022-10-01T10:22:22.379Z,98847.78
2022-10-01T10:25:24.876Z,98852.72
2022-10-01T10:28:28.500Z,98841.50
2022-10-01T10:31:44.232Z,98843.84
2022-10-01T10:34:47.069Z,98802.53
2022-10-01T10:37:52.412Z,98829.03
2022-10-01T10:40:54.699Z,98843.78
2022-10-01T10:44:06.573Z,98841.47
2022-10-01T10:47:14.134Z,98831.19
2022-10-01T10:50:29.185Z,98825.88
2022-10-01T10:53:41.855Z,98829.75
2022-10-01T10:56:52.330Z,98834.38
2022-10-01T11:00:16.234Z,98819.13
2022-10-01T11:03:23.991Z,98820.59
2022-10-01T11:06:26.846Z,98813.09
2022-10-01T11:10:11.518Z,98800.81
2022-10-01T11:13:32.804Z,98799.84
2022-10-01T11:16:42.289Z,98789.22
2022-10-01T11:19:48.250Z,98791.41
2022-10-01T11:23:08.875Z,98778.09
2022-10-01T11:26:41.277Z,98764.38
2022-10-01T11:29:55.624Z,98765.38
2022-10-01T11:33:36.329Z,98765.94
2022-10-01T11:36:41.566Z,98757.41
2022-10-01T11:39:47.755Z,98762.47
2022-10-01T11:42:55.415Z,98745.41
2022-10-01T11:46:07.707Z,98733.59
2022-10-01T11:49:38.315Z,98725.69
2022-10-01T11:53:15.150Z,98738.03
2022-10-01T11:57:04.872Z,98722.88
2022-10-01T12:00:10.887Z,98717.72
2022-10-01T12:03:22.428Z,98720.47
2022-10-01T12:06:51.385Z,98684.72
2022-10-01T12:10:12.085Z,98735.50
2022-10-01T12:13:33.637Z,98735.50
2022-10-01T12:16:50.472Z,98733.13
2022-10-01T12:19:57.193Z,98727.53
2022-10-01T12:23:03.102Z,98721.41
2022-10-01T12:26:27.334Z,98721.41
2022-10-01T12:29:41.783Z,98719.06
2022-10-01T12:33:01.438Z,98719.88
2022-10-01T12:36:29.535Z,98722.28
2022-10-01T12:39:52.389Z,98719.63
2022-10-01T12:43:30.169Z,98721.22
2022-10-01T12:46:51.599Z,98722.84
2022-10-01T12:50:22.292Z,98715.66
2022-10-01T12:53:45.861Z,98723.66
2022-10-01T12:57:37.107Z,98711.97
2022-10-01T13:00:49.628Z,98665.44
2022-10-01T13:04:28.771Z,98691.22
2022-10-01T13:07:50.224Z,98692.25
2022-10-01T13:11:11.041Z,98680.84
2022-10-01T13:14:18.995Z,98644.53
2022-10-01T13:17:43.519Z,98618.53
2022-10-01T13:21:18.159Z,98659.28
2022-10-01T13:24:35.825Z,98663.56
2022-10-01T13:27:46.603Z,98625.84
2022-10-01T13:31:02.607Z,98654.50
2022-10-01T13:34:25.902Z,98632.59
2022-10-01T13:37:38.461Z,98638.06
2022-10-01T13:40:41.309Z,98637.25
2022-10-01T13:44:08.404Z,98630.06
2022-10-01T13:47:13.306Z,98642.31
2022-10-01T13:50:34.585Z,98626.53
2022-10-01T13:54:00.828Z,98630.84
2022-10-01T13:57:10.514Z,98619.63
2022-10-01T14:00:12.816Z,98611.19
2022-10-01T14:03:45.132Z,98615.69
2022-10-01T14:06:50.463Z,98604.81
2022-10-01T14:09:57.934Z,98602.88
2022-10-01T14:13:22.264Z,98606.00
2022-10-01T14:16:25.355Z,98603.25
2022-10-01T14:19:28.516Z,98610.50
2022-10-01T14:22:45.871Z,98631.66
2022-10-01T14:26:21.474Z,98626.09
2022-10-01T14:29:50.991Z,98606.03
2022-10-01T14:33:14.624Z,98606.91
2022-10-01T14:36:37.494Z,98618.63
2022-10-01T14:39:39.997Z,98618.34
2022-10-01T14:42:42.328Z,98609.31
2022-10-01T14:45:56.587Z,98614.09
2022-10-01T14:48:59.984Z,98597.81
2022-10-01T14:52:06.018Z,98585.97
2022-10-01T14:55:13.557Z,98594.28
2022-10-01T14:58:35.245Z,98609.25
2022-10-01T15:01:37.572Z,98600.47
2022-10-01T15:04:46.280Z,98601.75
2022-10-01T15:07:48.900Z,98598.25
2022-10-01T15:10:59.882Z,98620.69
2022-10-01T15:14:08.338Z,98620.69
2022-10-01T15:17:23.255Z,98611.00
2022-10-01T15:20:27.176Z,98627.88
2022-10-01T15:23:30.724Z,98630.53
2022-10-01T15:26:33.712Z,98632.44
2022-10-01T15:29:38.856Z,98623.31
2022-10-01T15:32:41.942Z,98641.19
2022-10-01T15:35:44.287Z,98631.53
2022-10-01T15:38:48.946Z,98643.31
2022-10-01T15:41:52.810Z,98643.56
2022-10-01T15:45:07.192Z,98638.25
2022-10-01T15:48:32.247Z,98619.47
2022-10-01T15:51:34.790Z,98620.03
2022-10-01T15:54:37.927Z,98625.31
2022-10-01T15:57:40.297Z,98622.16
2022-10-01T16:00:58.012Z,98633.38
2022-10-01T16:04:11.675Z,98615.44
2022-10-01T16:07:26.221Z,98624.03
2022-10-01T16:10:35.892Z,98635.50
2022-10-01T16:13:41.094Z,98609.03
2022-10-01T16:16:43.446Z,98633.66
2022-10-01T16:19:48.195Z,98628.81
2022-10-01T16:22:50.467Z,98630.69
2022-10-01T16:25:52.675Z,98606.53
2022-10-01T16:28:58.260Z,98621.56
2022-10-01T16:32:02.648Z,98631.97
2022-10-01T16:35:14.665Z,98627.69
2022-10-01T16:38:16.890Z,98628.75
2022-10-01T16:41:26.138Z,98611.88
2022-10-01T16:44:28.707Z,98618.03
2022-10-01T16:47:31.006Z,98643.66
2022-10-01T16:50:33.282Z,98629.09
2022-10-01T16:53:35.514Z,98633.03
2022-10-01T16:56:38.134Z,98601.16
2022-10-01T16:59:40.629Z,98646.50
2022-10-01T17:02:43.224Z,98642.53
2022-10-01T17:05:46.180Z,98629.69
2022-10-01T17:08:48.537Z,98655.03
2022-10-01T17:11:50.823Z,98632.03
2022-10-01T17:14:53.031Z,98645.69
2022-10-01T17:17:57.498Z,98621.56
2022-10-01T17:21:03.693Z,98628.91
2022-10-01T17:24:06.262Z,98634.25
2022-10-01T17:27:08.464Z,98618.47
2022-10-01T17:30:11.088Z,98614.91
2022-10-01T17:33:15.055Z,98602.28
2022-10-01T17:36:17.405Z,98633.16
2022-10-01T17:39:19.683Z,98632.47
2022-10-01T17:42:21.895Z,98644.50
2022-10-01T17:45:24.197Z,98632.09
2022-10-01T17:48:28.341Z,98646.69
2022-10-01T17:51:31.254Z,98653.03
2022-10-01T17:54:35.718Z,98650.16
2022-10-01T17:57:38.070Z,98640.81
2022-10-01T18:00:41.433Z,98634.69
2022-10-01T18:03:43.779Z,98651.66
2022-10-01T18:06:48.505Z,98612.28
2022-10-01T18:09:52.885Z,98637.53
2022-10-01T18:12:57.536Z,98625.41
2022-10-01T18:16:08.142Z,98655.63
2022-10-01T18:22:35.149Z,98640.41
2022-10-01T18:25:37.451Z,98668.59
2022-10-01T18:28:39.842Z,98674.75
2022-10-01T18:31:45.107Z,98648.97
2022-10-01T18:34:54.658Z,98660.31
2022-10-01T18:38:03.445Z,98656.50
2022-10-01T18:41:14.014Z,98666.44
2022-10-01T18:44:20.439Z,98672.75
2022-10-01T18:47:43.473Z,98658.97
2022-10-01T18:51:11.798Z,98686.09
2022-10-01T18:54:25.338Z,98684.50
2022-10-01T18:57:55.625Z,98650.66
2022-10-01T19:01:04.490Z,98675.63
2022-10-01T19:04:44.586Z,98685.28
2022-10-01T19:08:22.619Z,98671.06
2022-10-01T19:12:02.471Z,98689.50
2022-10-01T19:15:13.767Z,98692.41
2022-10-01T19:18:44.808Z,98697.50
2022-10-01T19:21:59.232Z,98694.25
2022-10-01T19:25:23.307Z,98698.84
2022-10-01T19:28:50.374Z,98702.81
2022-10-01T19:31:58.902Z,98691.69
2022-10-01T19:35:07.876Z,98692.16
2022-10-01T19:38:19.555Z,98721.34
2022-10-01T19:41:31.939Z,98713.59
2022-10-01T19:44:54.304Z,98711.13
2022-10-01T19:48:21.534Z,98726.16
2022-10-01T19:51:32.289Z,98727.22
2022-10-01T19:54:38.616Z,98734.41
2022-10-01T19:57:43.642Z,98725.03
2022-10-01T20:00:54.172Z,98719.88
2022-10-01T20:04:01.807Z,98733.59
2022-10-01T20:07:16.964Z,98719.09
2022-10-01T20:10:21.371Z,98719.47
2022-10-01T20:13:32.438Z,98722.16
2022-10-01T20:16:40.746Z,98727.69
2022-10-01T20:20:01.740Z,98729.56
2022-10-01T20:23:13.041Z,98728.97
2022-10-01T20:26:47.284Z,98729.56
2022-10-01T20:30:17.335Z,98734.88
2022-10-01T20:33:38.858Z,98741.00
2022-10-01T20:37:08.140Z,98722.13
2022-10-01T20:40:10.414Z,98753.50
2022-10-01T20:43:17.814Z,98755.59
2022-10-01T20:46:34.836Z,98749.13
2022-10-01T20:49:44.776Z,98760.91
2022-10-01T20:53:13.031Z,98767.84
2022-10-01T20:56:26.219Z,98776.63
2022-10-01T20:59:41.285Z,98781.63
2022-10-01T21:02:55.926Z,98795.41
2022-10-01T21:06:04.920Z,98771.19
2022-10-01T21:09:27.819Z,98792.09
2022-10-01T21:12:37.351Z,98792.09
2022-10-01T21:15:55.058Z,98815.41
2022-10-01T21:19:14.107Z,98814.34
2022-10-01T21:22:25.937Z,98815.94
2022-10-01T21:25:44.285Z,98813.44
2022-10-01T21:29:26.342Z,98822.56
2022-10-01T21:32:47.741Z,98819.09
2022-10-01T21:36:08.740Z,98807.56
2022-10-01T21:39:26.265Z,98816.19
2022-10-01T21:42:35.078Z,98818.59
2022-10-01T21:45:59.917Z,98811.84
2022-10-01T21:49:17.681Z,98801.75
2022-10-01T21:52:47.875Z,98807.09
2022-10-01T21:56:08.924Z,98803.63
2022-10-01T21:59:29.919Z,98818.53
2022-10-01T22:02:39.249Z,98818.75
2022-10-01T22:05:50.958Z,98818.44
2022-10-01T22:09:11.409Z,98833.69
2022-10-01T22:12:14.838Z,98804.16
2022-10-01T22:15:27.459Z,98806.28
2022-10-01T22:18:55.201Z,98811.84
2022-10-01T22:22:13.477Z,98803.53
2022-10-01T22:25:15.856Z,98795.59
2022-10-01T22:28:23.785Z,98805.94
2022-10-01T22:31:30.777Z,98798.94
2022-10-01T22:34:40.930Z,98811.50
2022-10-01T22:38:11.324Z,98807.72
2022-10-01T22:41:39.694Z,98824.22
2022-10-01T22:44:41.986Z,98824.00
2022-10-01T22:48:02.968Z,98829.06
2022-10-01T22:51:16.458Z,98809.97
2022-10-01T22:54:24.456Z,98837.03
2022-10-01T22:57:58.065Z,98830.13
2022-10-01T23:01:26.460Z,98834.31
2022-10-01T23:04:39.742Z,98823.66
2022-10-01T23:08:01.533Z,98831.38
2022-10-01T23:11:22.316Z,98834.06
2022-10-01T23:14:46.130Z,98829.81
2022-10-01T23:18:16.208Z,98832.47
2022-10-01T23:21:33.845Z,98832.69
2022-10-01T23:24:58.984Z,98824.47
2022-10-01T23:28:09.899Z,98827.38
2022-10-01T23:31:21.376Z,98826.56
2022-10-01T23:34:45.051Z,98833.97
2022-10-01T23:38:17.804Z,98830.50
2022-10-01T23:41:32.922Z,98822.78
2022-10-01T23:44:50.131Z,98823.13
2022-10-01T23:48:23.268Z,98821.50
2022-10-01T23:51:31.990Z,98782.84
2022-10-01T23:54:42.228Z,98835.81
2022-10-01T23:57:46.806Z,98835.81
